Time;durP1;ratioP1;P1;durP2;ratioP2;P2;SDS_P1;SDS_P2;PMS_P1;PMS_P2;Temp;Humidity;BMP_temperature;BMP_pressure;BME280_temperature;BME280_humidity;BME280_pressure;Samples;Min_cycle;Max_cycle;Signal;HPM_P1;HPM_P2
2022/03/12 00:01:15;;;;;;;16.60;8.25;;;;;;;;;;5088425;28;20055;-63
2022/03/12 00:03:42;;;;;;;15.35;8.55;;;;;;;;;;5083146;28;20063;-62
2022/03/12 00:06:09;;;;;;;16.83;8.88;;;;;;;;;;5068015;28;20056;-63
2022/03/12 00:08:43;;;;;;;13.67;6.07;;;;;;;;;;5067935;28;20110;-62
2022/03/12 00:11:21;;;;;;;17.10;8.52;;;;;;;;;;5067649;28;20063;-63
2022/03/12 00:13:48;;;;;;;14.45;7.47;;;;;;;;;;5068102;28;20144;-62
2022/03/12 00:16:21;;;;;;;16.05;8.43;;;;;;;;;;5068082;28;20530;-63
2022/03/12 00:18:53;;;;;;;14.98;8.20;;;;;;;;;;5068082;28;20503;-63
2022/03/12 00:21:22;;;;;;;19.98;9.02;;;;;;;;;;5067039;28;20060;-63
2022/03/12 00:23:50;;;;;;;16.30;8.43;;;;;;;;;;5067372;28;20519;-63
2022/03/12 00:26:17;;;;;;;19.60;9.20;;;;;;;;;;5067674;28;20144;-63
2022/03/12 00:28:44;;;;;;;16.53;9.07;;;;;;;;;;5067870;28;20057;-63
2022/03/12 00:31:11;;;;;;;16.33;8.68;;;;;;;;;;5067897;28;20515;-62
2022/03/12 00:33:38;;;;;;;19.98;8.05;;;;;;;;;;5067545;28;20512;-62
2022/03/12 00:36:04;;;;;;;16.75;8.68;;;;;;;;;;5073924;28;20168;-62
2022/03/12 00:38:31;;;;;;;17.40;8.55;;;;;;;;;;5087937;28;20053;-62
2022/03/12 00:40:58;;;;;;;13.65;7.07;;;;;;;;;;5080560;28;20586;-62
2022/03/12 00:43:24;;;;;;;15.27;7.82;;;;;;;;;;5067134;28;20053;-62
2022/03/12 00:45:50;;;;;;;17.70;8.40;;;;;;;;;;5076247;28;20059;-62
2022/03/12 00:48:16;;;;;;;18.92;8.52;;;;;;;;;;5091364;28;20067;-62
2022/03/12 00:51:02;;;;;;;14.73;8.07;;;;;;;;;;5084773;28;20053;-63
2022/03/12 00:53:28;;;;;;;18.38;7.78;;;;;;;;;;5071489;28;20060;-62
2022/03/12 00:55:55;;;;;;;19.30;8.70;;;;;;;;;;5076685;28;20506;-62
2022/03/12 00:58:21;;;;;;;18.90;8.05;;;;;;;;;;5091203;28;20060;-62
2022/03/12 01:00:48;;;;;;;18.02;8.88;;;;;;;;;;5088399;28;20055;-62
2022/03/12 01:03:15;;;;;;;18.17;9.23;;;;;;;;;;5071160;28;20057;-62
2022/03/12 01:05:52;;;;;;;18.25;8.93;;;;;;;;;;5070807;28;20091;-62
2022/03/12 01:08:20;;;;;;;13.75;7.53;;;;;;;;;;5071087;28;20059;-63
2022/03/12 01:10:47;;;;;;;19.58;8.73;;;;;;;;;;5070286;28;20535;-63
2022/03/12 01:13:13;;;;;;;17.45;8.80;;;;;;;;;;5069774;28;20071;-62
2022/03/12 01:15:40;;;;;;;21.48;8.50;;;;;;;;;;5070883;28;20131;-62
2022/03/12 01:18:12;;;;;;;17.63;8.75;;;;;;;;;;5070077;28;20515;-62
2022/03/12 01:20:38;;;;;;;19.30;8.35;;;;;;;;;;5070435;28;20045;-63
2022/03/12 01:23:05;;;;;;;20.58;10.20;;;;;;;;;;5070143;28;20055;-63
2022/03/12 01:25:31;;;;;;;17.92;7.90;;;;;;;;;;5070212;28;20061;-63
2022/03/12 01:27:58;;;;;;;20.20;8.25;;;;;;;;;;5069079;28;20055;-63
2022/03/12 01:30:28;;;;;;;16.90;8.20;;;;;;;;;;5070688;28;20084;-63
2022/03/12 01:32:55;;;;;;;19.98;8.90;;;;;;;;;;5069092;28;20080;-63
2022/03/12 01:35:22;;;;;;;18.88;9.07;;;;;;;;;;5069324;28;20184;-63
2022/03/12 01:37:49;;;;;;;14.20;8.32;;;;;;;;;;5070778;28;20177;-63
2022/03/12 01:40:15;;;;;;;19.10;8.70;;;;;;;;;;5070726;28;20051;-63
2022/03/12 01:42:43;;;;;;;23.02;8.23;;;;;;;;;;5082810;28;20057;-63
2022/03/12 01:45:10;;;;;;;21.23;9.00;;;;;;;;;;5072495;28;20057;-63
2022/03/12 01:47:36;;;;;;;16.58;8.48;;;;;;;;;;5070331;28;20037;-63
2022/03/12 01:50:04;;;;;;;16.45;8.88;;;;;;;;;;5069678;28;20870;-63
2022/03/12 01:52:31;;;;;;;20.40;8.95;;;;;;;;;;5069603;28;20137;-63
2022/03/12 01:54:57;;;;;;;23.27;9.88;;;;;;;;;;5070122;28;20056;-63
2022/03/12 01:57:24;;;;;;;16.27;8.93;;;;;;;;;;5068370;28;20144;-63
2022/03/12 01:59:51;;;;;;;21.15;9.18;;;;;;;;;;5070496;28;20140;-62
2022/03/12 02:02:17;;;;;;;23.15;9.63;;;;;;;;;;5073065;28;20055;-63
2022/03/12 02:04:47;;;;;;;19.38;9.30;;;;;;;;;;5089762;28;20057;-63
2022/03/12 02:07:14;;;;;;;18.00;9.45;;;;;;;;;;5090155;28;20052;-63
2022/03/12 02:09:41;;;;;;;25.17;9.82;;;;;;;;;;5090392;28;20067;-63
2022/03/12 02:12:07;;;;;;;20.65;9.75;;;;;;;;;;5080489;28;20438;-63
2022/03/12 02:14:34;;;;;;;20.13;10.10;;;;;;;;;;5090467;28;20470;-63
2022/03/12 02:17:03;;;;;;;17.67;9.52;;;;;;;;;;5089805;28;20053;-63
2022/03/12 02:19:30;;;;;;;19.73;10.20;;;;;;;;;;5090109;28;20067;-63
2022/03/12 02:22:05;;;;;;;21.77;10.50;;;;;;;;;;5076593;28;20049;-63
2022/03/12 02:24:32;;;;;;;18.42;10.43;;;;;;;;;;5069242;28;20140;-63
2022/03/12 02:26:59;;;;;;;21.98;10.95;;;;;;;;;;5069130;28;20487;-63
2022/03/12 02:29:26;;;;;;;22.05;10.80;;;;;;;;;;5070293;28;20060;-63
2022/03/12 02:31:57;;;;;;;18.33;9.82;;;;;;;;;;5078280;28;20059;-63
2022/03/12 02:34:35;;;;;;;16.63;9.70;;;;;;;;;;5089667;28;20054;-63
2022/03/12 02:37:01;;;;;;;18.30;9.95;;;;;;;;;;5079627;28;20526;-64
2022/03/12 02:39:27;;;;;;;18.80;10.45;;;;;;;;;;5068778;28;20827;-63
2022/03/12 02:41:59;;;;;;;19.58;10.00;;;;;;;;;;5078804;28;20521;-63
2022/03/12 02:44:28;;;;;;;19.33;10.30;;;;;;;;;;5089720;28;20876;-63
2022/03/12 02:46:54;;;;;;;;;;;;;;;;;;5088548;28;20053;-63
2022/03/12 02:49:21;;;;;;;19.70;10.00;;;;;;;;;;5069620;28;44349;-63
2022/03/12 02:51:47;;;;;;;20.30;10.05;;;;;;;;;;5068136;28;20053;-63
2022/03/12 02:54:13;;;;;;;19.13;9.52;;;;;;;;;;5069126;28;20060;-63
2022/03/12 02:56:40;;;;;;;18.55;10.07;;;;;;;;;;5069105;28;20048;-63
2022/03/12 02:59:13;;;;;;;19.00;9.73;;;;;;;;;;5069310;28;20077;-63
2022/03/12 03:01:40;;;;;;;20.92;9.32;;;;;;;;;;5069053;28;20057;-63
2022/03/12 03:04:07;;;;;;;20.30;9.95;;;;;;;;;;5069778;28;20565;-63
2022/03/12 03:06:33;;;;;;;19.42;10.73;;;;;;;;;;5068774;28;20041;-63
2022/03/12 03:09:00;;;;;;;17.80;9.48;;;;;;;;;;5084863;28;20184;-63
2022/03/12 03:11:29;;;;;;;20.55;9.77;;;;;;;;;;5078874;28;20940;-63
2022/03/12 03:13:55;;;;;;;18.67;10.07;;;;;;;;;;5068119;28;20438;-63
2022/03/12 03:16:21;;;;;;;19.88;9.48;;;;;;;;;;5068702;28;20055;-63
2022/03/12 03:18:53;;;;;;;18.42;9.32;;;;;;;;;;5067201;28;20060;-63
2022/03/12 03:21:21;;;;;;;18.42;10.38;;;;;;;;;;5076838;28;20070;-63
2022/03/12 03:23:48;;;;;;;;;;;;;;;;;;5089033;28;20052;-63
2022/03/12 03:26:19;;;;;;;16.63;10.05;;;;;;;;;;5088465;28;44504;-63
2022/03/12 03:28:45;;;;;;;17.05;9.02;;;;;;;;;;5089279;28;20125;-63
2022/03/12 03:31:11;;;;;;;18.13;9.98;;;;;;;;;;5072203;28;20477;-63
2022/03/12 03:33:38;;;;;;;18.77;9.50;;;;;;;;;;5087764;28;21003;-63
2022/03/12 03:36:04;;;;;;;20.70;9.70;;;;;;;;;;5086857;28;20048;-63
2022/03/12 03:38:31;;;;;;;17.35;9.43;;;;;;;;;;5088891;28;20048;-62
2022/03/12 03:40:57;;;;;;;22.98;10.10;;;;;;;;;;5072638;28;20049;-63
2022/03/12 03:43:24;;;;;;;21.73;10.10;;;;;;;;;;5068349;28;20049;-63
2022/03/12 03:45:52;;;;;;;20.02;9.70;;;;;;;;;;5068561;28;20517;-63
2022/03/12 03:48:19;;;;;;;18.98;9.90;;;;;;;;;;5068646;28;20786;-63
2022/03/12 03:50:46;;;;;;;21.23;10.10;;;;;;;;;;5067823;28;20060;-63
2022/03/12 03:53:13;;;;;;;17.45;9.30;;;;;;;;;;5068552;28;20057;-63
2022/03/12 03:55:40;;;;;;;17.75;9.43;;;;;;;;;;5067718;28;20059;-63
2022/03/12 03:58:07;;;;;;;19.15;9.60;;;;;;;;;;5068345;28;20128;-63
2022/03/12 04:00:33;;;;;;;20.42;9.90;;;;;;;;;;5069028;28;20430;-62
2022/03/12 04:03:03;;;;;;;19.42;10.05;;;;;;;;;;5067651;28;20533;-63
2022/03/12 04:05:31;;;;;;;16.42;9.05;;;;;;;;;;5068450;28;20483;-63
2022/03/12 04:07:57;;;;;;;19.35;10.32;;;;;;;;;;5067862;28;20517;-63
2022/03/12 04:10:24;;;;;;;18.83;8.90;;;;;;;;;;5068081;28;20507;-62
2022/03/12 04:12:50;;;;;;;16.33;8.80;;;;;;;;;;5067713;28;20562;-62
2022/03/12 04:15:17;;;;;;;20.23;9.18;;;;;;;;;;5068065;28;20056;-62
2022/03/12 04:17:44;;;;;;;18.38;9.57;;;;;;;;;;5068061;28;20053;-62
2022/03/12 04:20:13;;;;;;;16.15;9.05;;;;;;;;;;5070939;28;20123;-62
2022/03/12 04:22:40;;;;;;;16.90;9.52;;;;;;;;;;5077856;28;20053;-62
2022/03/12 04:25:12;;;;;;;16.10;9.38;;;;;;;;;;5066670;28;20059;-62
2022/03/12 04:27:41;;;;;;;16.33;9.40;;;;;;;;;;5067977;28;20048;-61
2022/03/12 04:30:08;;;;;;;17.88;9.80;;;;;;;;;;5069371;28;20057;-62
2022/03/12 04:32:35;;;;;;;18.10;9.52;;;;;;;;;;5067720;28;21163;-62
2022/03/12 04:35:05;;;;;;;18.98;9.27;;;;;;;;;;5067436;28;20083;-62
2022/03/12 04:37:37;;;;;;;18.83;9.43;;;;;;;;;;5067477;28;20168;-62
2022/03/12 04:40:07;;;;;;;19.00;9.48;;;;;;;;;;5067230;28;20049;-62
2022/03/12 04:42:34;;;;;;;17.33;8.73;;;;;;;;;;5067172;28;20057;-62
2022/03/12 04:45:00;;;;;;;18.40;9.07;;;;;;;;;;5067114;28;20049;-62
2022/03/12 04:47:26;;;;;;;19.50;9.65;;;;;;;;;;5067455;28;20059;-62
2022/03/12 04:49:53;;;;;;;19.52;9.77;;;;;;;;;;5066398;28;20056;-62
2022/03/12 04:52:20;;;;;;;17.08;9.63;;;;;;;;;;5083110;28;20051;-62
2022/03/12 04:54:46;;;;;;;21.33;10.27;;;;;;;;;;5087714;28;20055;-62
2022/03/12 04:57:12;;;;;;;17.48;9.45;;;;;;;;;;5087976;28;20051;-62
2022/03/12 04:59:39;;;;;;;17.17;9.55;;;;;;;;;;5087644;28;20138;-62
2022/03/12 05:02:11;;;;;;;18.83;9.82;;;;;;;;;;5070122;28;20057;-62
2022/03/12 05:04:38;;;;;;;16.02;9.32;;;;;;;;;;5067247;28;20053;-63
2022/03/12 05:07:08;;;;;;;19.42;10.02;;;;;;;;;;5067434;28;21012;-63
2022/03/12 05:09:35;;;;;;;17.60;10.05;;;;;;;;;;5068953;28;20059;-63
2022/03/12 05:12:05;;;;;;;16.92;9.40;;;;;;;;;;5085501;28;20532;-63
2022/03/12 05:14:35;;;;;;;17.65;9.18;;;;;;;;;;5087285;28;20057;-63
2022/03/12 05:17:08;;;;;;;16.98;9.82;;;;;;;;;;5087567;28;20052;-62
2022/03/12 05:19:36;;;;;;;15.75;9.48;;;;;;;;;;5086826;28;20055;-63
2022/03/12 05:22:07;;;;;;;16.52;9.48;;;;;;;;;;5077860;28;20138;-63
2022/03/12 05:24:34;;;;;;;20.60;9.70;;;;;;;;;;5067303;28;20136;-63
2022/03/12 05:27:02;;;;;;;18.58;8.65;;;;;;;;;;5065819;28;20077;-63
2022/03/12 05:29:30;;;;;;;17.05;9.15;;;;;;;;;;5066332;28;20537;-63
2022/03/12 05:31:56;;;;;;;16.70;9.43;;;;;;;;;;5068107;28;20545;-65
2022/03/12 05:34:23;;;;;;;17.08;8.95;;;;;;;;;;5070220;28;21308;-63
2022/03/12 05:36:50;;;;;;;17.77;9.55;;;;;;;;;;5070317;28;20146;-63
2022/03/12 05:39:16;;;;;;;17.25;8.85;;;;;;;;;;5070099;28;20049;-63
2022/03/12 05:41:44;;;;;;;17.52;9.10;;;;;;;;;;5085197;28;20106;-63
2022/03/12 05:44:14;;;;;;;15.87;8.80;;;;;;;;;;5091637;28;20123;-63
2022/03/12 05:46:41;;;;;;;15.73;8.77;;;;;;;;;;5090776;28;20044;-62
2022/03/12 05:49:08;;;;;;;15.00;8.43;;;;;;;;;;5089938;28;20509;-63
2022/03/12 05:51:36;;;;;;;18.17;8.13;;;;;;;;;;5075764;28;20139;-63
2022/03/12 05:54:03;;;;;;;13.13;7.95;;;;;;;;;;5082277;28;20422;-63
2022/03/12 05:56:29;;;;;;;15.30;8.10;;;;;;;;;;5090719;28;20049;-63
2022/03/12 05:58:56;;;;;;;16.23;8.27;;;;;;;;;;5084997;28;20064;-63
2022/03/12 06:01:23;;;;;;;14.57;8.00;;;;;;;;;;5068291;28;20057;-63
2022/03/12 06:03:49;;;;;;;12.65;7.65;;;;;;;;;;5068610;28;20077;-63
2022/03/12 06:06:16;;;;;;;14.25;7.07;;;;;;;;;;5070024;28;20080;-63
2022/03/12 06:08:42;;;;;;;16.83;8.57;;;;;;;;;;5069496;28;20532;-63
2022/03/12 06:11:10;;;;;;;13.50;7.90;;;;;;;;;;5068992;28;20067;-63
2022/03/12 06:13:37;;;;;;;15.63;8.57;;;;;;;;;;5076877;28;20053;-62
2022/03/12 06:16:04;;;;;;;17.13;8.52;;;;;;;;;;5090235;28;20052;-61
2022/03/12 06:18:32;;;;;;;13.15;7.38;;;;;;;;;;5089671;28;21328;-62
2022/03/12 06:20:59;;;;;;;14.43;8.10;;;;;;;;;;5089607;28;20541;-63
2022/03/12 06:23:27;;;;;;;17.15;7.35;;;;;;;;;;5083114;28;20049;-63
2022/03/12 06:25:53;;;;;;;14.02;8.25;;;;;;;;;;5069384;28;20047;-62
2022/03/12 06:28:21;;;;;;;17.55;8.38;;;;;;;;;;5081080;28;20132;-63
2022/03/12 06:30:49;;;;;;;17.58;8.45;;;;;;;;;;5090002;28;20155;-63
2022/03/12 06:33:19;;;;;;;14.00;8.20;;;;;;;;;;5083865;28;20053;-62
2022/03/12 06:35:46;;;;;;;14.80;8.18;;;;;;;;;;5075775;28;20064;-62
2022/03/12 06:38:14;;;;;;;14.35;7.88;;;;;;;;;;5089977;28;20172;-62
2022/03/12 06:40:40;;;;;;;13.87;7.60;;;;;;;;;;5089645;28;20513;-62
2022/03/12 06:43:09;;;;;;;13.98;7.85;;;;;;;;;;5088149;28;20139;-62
2022/03/12 06:45:35;;;;;;;14.75;8.38;;;;;;;;;;5088859;28;20133;-62
2022/03/12 06:48:02;;;;;;;14.73;8.45;;;;;;;;;;5089609;28;20510;-62
2022/03/12 06:50:28;;;;;;;15.90;7.50;;;;;;;;;;5089659;28;20059;-62
2022/03/12 06:52:56;;;;;;;14.15;7.43;;;;;;;;;;5085539;28;20131;-62
2022/03/12 06:55:24;;;;;;;13.20;7.28;;;;;;;;;;5069310;28;20140;-62
2022/03/12 06:57:53;;;;;;;14.65;8.38;;;;;;;;;;5068810;28;20052;-62
2022/03/12 07:00:24;;;;;;;19.00;7.38;;;;;;;;;;5068959;28;20499;-62
2022/03/12 07:02:51;;;;;;;14.60;7.70;;;;;;;;;;5069564;28;20144;-62
2022/03/12 07:05:18;;;;;;;13.75;7.45;;;;;;;;;;5069265;28;20049;-62
2022/03/12 07:07:44;;;;;;;12.80;6.90;;;;;;;;;;5068682;28;20075;-62
2022/03/12 07:10:10;;;;;;;13.23;7.40;;;;;;;;;;5078700;28;20061;-62
2022/03/12 07:12:38;;;;;;;12.20;6.85;;;;;;;;;;5087468;28;20053;-63
2022/03/12 07:15:05;;;;;;;14.98;7.90;;;;;;;;;;5068143;28;20064;-61
2022/03/12 07:17:32;;;;;;;12.02;7.00;;;;;;;;;;5068105;28;20061;-62
2022/03/12 07:19:59;;;;;;;10.95;7.00;;;;;;;;;;5068826;28;20245;-62
2022/03/12 07:22:25;;;;;;;12.25;6.88;;;;;;;;;;5068707;28;20139;-62
2022/03/12 07:24:52;;;;;;;11.82;6.47;;;;;;;;;;5067130;28;20055;-62
2022/03/12 07:27:18;;;;;;;12.38;7.47;;;;;;;;;;5068804;28;20057;-62
2022/03/12 07:29:45;;;;;;;11.15;6.47;;;;;;;;;;5068593;28;20061;-62
2022/03/12 07:32:11;;;;;;;13.88;6.70;;;;;;;;;;5072417;28;20502;-62
2022/03/12 07:34:37;;;;;;;11.93;6.80;;;;;;;;;;5071292;28;20526;-62
2022/03/12 07:37:04;;;;;;;14.40;6.55;;;;;;;;;;5075211;28;20064;-62
2022/03/12 07:39:31;;;;;;;12.75;7.22;;;;;;;;;;5067049;28;20135;-62
2022/03/12 07:41:57;;;;;;;11.82;6.75;;;;;;;;;;5062467;28;20143;-62
2022/03/12 07:44:23;;;;;;;12.20;6.95;;;;;;;;;;5069457;28;20071;-62
2022/03/12 07:46:49;;;;;;;13.23;6.82;;;;;;;;;;5088416;28;20062;-62
2022/03/12 07:49:16;;;;;;;16.25;6.97;;;;;;;;;;5080004;28;20059;-62
2022/03/12 07:51:43;;;;;;;11.43;6.47;;;;;;;;;;5068234;28;20071;-63
2022/03/12 07:54:12;;;;;;;11.63;6.55;;;;;;;;;;5066129;28;20935;-62
2022/03/12 07:56:39;;;;;;;13.52;6.88;;;;;;;;;;5073446;28;20088;-62
2022/03/12 07:59:06;;;;;;;13.07;6.43;;;;;;;;;;5070753;28;20063;-62
2022/03/12 08:01:33;;;;;;;11.15;6.55;;;;;;;;;;5071833;28;20052;-62
2022/03/12 08:04:01;;;;;;;12.68;7.05;;;;;;;;;;5069836;28;20139;-62
2022/03/12 08:06:28;;;;;;;14.85;6.78;;;;;;;;;;5068168;28;20056;-61
2022/03/12 08:08:55;;;;;;;55.05;11.40;;;;;;;;;;5084070;28;20155;-62
2022/03/12 08:11:25;;;;;;;14.13;6.65;;;;;;;;;;5067888;28;20443;-62
2022/03/12 08:13:53;;;;;;;12.07;6.80;;;;;;;;;;5078673;28;20056;-62
2022/03/12 08:16:20;;;;;;;12.07;7.57;;;;;;;;;;5087445;28;20087;-62
2022/03/12 08:18:47;;;;;;;13.05;5.97;;;;;;;;;;5087014;28;20063;-62
2022/03/12 08:21:14;;;;;;;11.98;6.22;;;;;;;;;;5077525;28;20103;-62
2022/03/12 08:23:40;;;;;;;12.35;6.25;;;;;;;;;;5072455;28;20147;-62
2022/03/12 08:26:07;;;;;;;10.73;5.68;;;;;;;;;;5068338;28;20059;-62
2022/03/12 08:28:34;;;;;;;12.95;6.15;;;;;;;;;;5069705;28;20052;-62
2022/03/12 08:31:02;;;;;;;10.93;6.03;;;;;;;;;;5077147;28;20566;-62
2022/03/12 08:33:28;;;;;;;11.68;5.43;;;;;;;;;;5073529;28;20053;-62
2022/03/12 08:35:56;;;;;;;10.55;5.00;;;;;;;;;;5074072;28;20139;-61
2022/03/12 08:38:22;;;;;;;12.27;5.55;;;;;;;;;;5080344;28;20048;-62
2022/03/12 08:40:49;;;;;;;11.55;5.03;;;;;;;;;;5082759;28;20053;-63
2022/03/12 08:43:15;;;;;;;15.23;5.10;;;;;;;;;;5070567;28;20079;-65
2022/03/12 08:45:42;;;;;;;16.10;5.55;;;;;;;;;;5086459;28;20525;-65
2022/03/12 08:48:10;;;;;;;10.88;5.18;;;;;;;;;;5084981;28;20518;-65
2022/03/12 08:50:36;;;;;;;15.13;5.55;;;;;;;;;;5071555;28;20057;-65
2022/03/12 08:53:04;;;;;;;10.43;5.65;;;;;;;;;;5074070;28;20061;-63
2022/03/12 08:55:30;;;;;;;9.75;5.18;;;;;;;;;;5074196;28;20139;-64
2022/03/12 08:57:57;;;;;;;12.65;5.70;;;;;;;;;;5072245;28;20045;-63
2022/03/12 09:00:24;;;;;;;10.63;5.40;;;;;;;;;;5077812;28;20075;-64
2022/03/12 09:02:50;;;;;;;11.38;5.57;;;;;;;;;;5079707;28;20178;-64
2022/03/12 09:05:17;;;;;;;9.30;5.20;;;;;;;;;;5073069;28;20044;-64
2022/03/12 09:07:44;;;;;;;13.27;5.75;;;;;;;;;;5071196;28;20045;-62
2022/03/12 09:10:12;;;;;;;9.65;5.53;;;;;;;;;;5072232;28;20063;-62
2022/03/12 09:12:40;;;;;;;10.57;5.60;;;;;;;;;;5070726;28;20096;-63
2022/03/12 09:15:06;;;;;;;8.95;5.05;;;;;;;;;;5071305;28;20151;-62
2022/03/12 09:17:33;;;;;;;11.10;5.65;;;;;;;;;;5070964;28;20147;-62
2022/03/12 09:19:59;;;;;;;11.52;4.97;;;;;;;;;;5073262;28;20171;-62
2022/03/12 09:22:26;;;;;;;10.18;5.03;;;;;;;;;;5089056;28;20061;-63
2022/03/12 09:24:52;;;;;;;11.10;5.00;;;;;;;;;;5086209;28;20167;-62
2022/03/12 09:27:19;;;;;;;10.88;5.28;;;;;;;;;;5077630;28;20507;-63
2022/03/12 09:29:45;;;;;;;11.00;4.28;;;;;;;;;;5088136;28;20053;-62
2022/03/12 09:32:11;;;;;;;10.25;4.78;;;;;;;;;;5085334;28;20143;-62
2022/03/12 09:34:38;;;;;;;10.98;4.70;;;;;;;;;;5070599;28;20057;-62
2022/03/12 09:37:05;;;;;;;7.90;3.58;;;;;;;;;;5068111;28;20507;-63
2022/03/12 09:39:31;;;;;;;12.80;4.20;;;;;;;;;;5094794;28;20048;-62
2022/03/12 09:41:58;;;;;;;10.05;4.22;;;;;;;;;;5079869;27;20140;-62
2022/03/12 09:44:24;;;;;;;11.55;4.38;;;;;;;;;;5069618;28;20045;-62
2022/03/12 09:46:51;;;;;;;10.18;4.32;;;;;;;;;;5085982;28;20048;-62
2022/03/12 09:49:17;;;;;;;10.00;4.82;;;;;;;;;;5087312;28;20594;-62
2022/03/12 09:51:43;;;;;;;11.18;4.68;;;;;;;;;;5072328;28;20056;-63
2022/03/12 09:54:11;;;;;;;8.70;4.30;;;;;;;;;;5076159;28;20063;-62
2022/03/12 09:56:38;;;;;;;10.98;4.88;;;;;;;;;;5089871;28;20491;-63
2022/03/12 09:59:05;;;;;;;10.80;4.38;;;;;;;;;;5081705;28;20978;-63
2022/03/12 10:01:32;;;;;;;11.88;4.45;;;;;;;;;;5086908;28;20057;-63
2022/03/12 10:03:58;;;;;;;10.70;4.47;;;;;;;;;;5088481;28;20590;-63
2022/03/12 10:06:25;;;;;;;11.93;4.57;;;;;;;;;;5076721;28;20495;-63
2022/03/12 10:08:52;;;;;;;11.90;5.35;;;;;;;;;;5069361;28;20511;-63
2022/03/12 10:11:18;;;;;;;11.43;4.57;;;;;;;;;;5072915;28;20057;-63
2022/03/12 10:13:44;;;;;;;10.77;5.53;;;;;;;;;;5069452;28;20487;-63
2022/03/12 10:16:11;;;;;;;12.27;5.20;;;;;;;;;;5070761;28;20057;-63
2022/03/12 10:18:38;;;;;;;10.40;4.53;;;;;;;;;;5079357;28;20611;-63
2022/03/12 10:21:04;;;;;;;9.38;4.57;;;;;;;;;;5069468;28;20118;-64
2022/03/12 10:23:31;;;;;;;10.30;4.85;;;;;;;;;;5072918;28;20056;-63
2022/03/12 10:25:58;;;;;;;9.25;4.72;;;;;;;;;;5074234;28;20295;-63
2022/03/12 10:28:24;;;;;;;13.95;4.78;;;;;;;;;;5084420;28;20084;-63
2022/03/12 10:30:53;;;;;;;8.55;4.32;;;;;;;;;;5085836;28;20056;-63
2022/03/12 10:33:20;;;;;;;8.30;4.47;;;;;;;;;;5067062;28;20053;-62
2022/03/12 10:35:46;;;;;;;7.63;3.55;;;;;;;;;;5068935;28;20530;-63
2022/03/12 10:38:13;;;;;;;8.18;3.50;;;;;;;;;;5069479;28;20053;-63
2022/03/12 10:40:40;;;;;;;10.98;3.35;;;;;;;;;;5086436;28;20056;-63
2022/03/12 10:43:13;;;;;;;6.68;2.70;;;;;;;;;;5083357;28;20136;-62
2022/03/12 10:45:40;;;;;;;7.85;2.95;;;;;;;;;;5087546;28;20144;-63
2022/03/12 10:48:07;;;;;;;7.88;2.63;;;;;;;;;;5069810;28;20052;-63
2022/03/12 10:50:38;;;;;;;12.35;2.92;;;;;;;;;;5067311;28;20502;-63
2022/03/12 10:53:06;;;;;;;12.13;3.17;;;;;;;;;;5068624;28;20049;-63
2022/03/12 10:55:34;;;;;;;9.25;2.70;;;;;;;;;;5077196;28;20062;-62
2022/03/12 10:58:08;;;;;;;13.80;3.13;;;;;;;;;;5090055;27;20044;-63
2022/03/12 11:00:37;;;;;;;8.15;2.58;;;;;;;;;;5086006;28;20054;-63
2022/03/12 11:03:09;;;;;;;11.25;2.88;;;;;;;;;;5087159;28;20154;-63
2022/03/12 11:05:36;;;;;;;8.38;2.70;;;;;;;;;;5085436;28;20057;-63
2022/03/12 11:08:06;;;;;;;7.88;3.70;;;;;;;;;;5080512;28;20056;-63
2022/03/12 11:10:33;;;;;;;6.45;2.63;;;;;;;;;;5087442;28;20055;-63
2022/03/12 11:13:01;;;;;;;9.55;3.38;;;;;;;;;;5081471;28;20080;-63
2022/03/12 11:15:31;;;;;;;7.75;2.60;;;;;;;;;;5081265;28;21031;-63
2022/03/12 11:18:03;;;;;;;8.30;2.92;;;;;;;;;;5074544;28;20052;-63
2022/03/12 11:20:32;;;;;;;7.78;2.40;;;;;;;;;;5082321;28;20059;-63
2022/03/12 11:23:13;;;;;;;7.07;2.47;;;;;;;;;;5068791;28;20045;-63
2022/03/12 11:25:58;;;;;;;6.95;2.60;;;;;;;;;;5070437;28;20049;-63
2022/03/12 11:28:25;;;;;;;7.53;2.40;;;;;;;;;;5075701;28;20057;-63
2022/03/12 11:30:51;;;;;;;6.22;2.10;;;;;;;;;;5077418;28;20052;-63
2022/03/12 11:33:20;;;;;;;9.60;2.30;;;;;;;;;;5074857;28;20065;-63
2022/03/12 11:35:47;;;;;;;5.95;2.50;;;;;;;;;;5073816;28;20195;-63
2022/03/12 11:38:20;;;;;;;8.75;2.30;;;;;;;;;;5077350;28;20075;-63
2022/03/12 11:40:51;;;;;;;4.97;2.08;;;;;;;;;;5083636;28;20910;-63
2022/03/12 11:43:31;;;;;;;8.15;2.53;;;;;;;;;;5070993;28;20075;-63
2022/03/12 11:46:03;;;;;;;7.78;2.53;;;;;;;;;;5087130;28;20079;-64
2022/03/12 11:48:31;;;;;;;5.78;2.35;;;;;;;;;;5077123;28;20529;-63
2022/03/12 11:51:00;;;;;;;7.10;2.65;;;;;;;;;;5080152;28;20053;-63
2022/03/12 11:53:32;;;;;;;10.77;3.28;;;;;;;;;;5070734;28;20052;-63
2022/03/12 11:56:12;;;;;;;7.47;2.80;;;;;;;;;;5084491;28;20528;-63
2022/03/12 11:58:39;;;;;;;8.77;2.33;;;;;;;;;;5077707;28;20055;-63
2022/03/12 12:01:05;;;;;;;10.57;2.88;;;;;;;;;;5070971;28;20060;-63
2022/03/12 12:03:32;;;;;;;7.93;2.42;;;;;;;;;;5068421;28;20057;-63
2022/03/12 12:05:59;;;;;;;9.15;2.60;;;;;;;;;;5066872;28;20079;-63
2022/03/12 12:08:27;;;;;;;10.38;2.65;;;;;;;;;;5074430;28;20063;-63
2022/03/12 12:10:54;;;;;;;10.63;2.60;;;;;;;;;;5080099;28;20063;-63
2022/03/12 12:13:21;;;;;;;8.20;2.60;;;;;;;;;;5068443;28;20063;-63
2022/03/12 12:15:48;;;;;;;10.77;2.95;;;;;;;;;;5073298;28;20084;-63
2022/03/12 12:18:14;;;;;;;6.63;2.45;;;;;;;;;;5067846;28;20059;-63
2022/03/12 12:20:41;;;;;;;6.72;2.28;;;;;;;;;;5069123;28;20507;-63
2022/03/12 12:23:13;;;;;;;7.00;2.63;;;;;;;;;;5082723;28;20063;-63
2022/03/12 12:25:39;;;;;;;9.88;2.50;;;;;;;;;;5072391;28;20577;-63
2022/03/12 12:28:14;;;;;;;6.18;2.00;;;;;;;;;;5077298;28;20049;-63
2022/03/12 12:30:43;;;;;;;6.97;2.42;;;;;;;;;;5072940;28;20141;-63
2022/03/12 12:33:12;;;;;;;8.95;2.55;;;;;;;;;;5067537;28;20139;-63
2022/03/12 12:35:39;;;;;;;8.52;2.10;;;;;;;;;;5074715;28;20437;-62
2022/03/12 12:38:08;;;;;;;6.80;2.20;;;;;;;;;;5077190;28;20045;-63
2022/03/12 12:40:52;;;;;;;6.47;1.90;;;;;;;;;;5088383;28;20851;-62
2022/03/12 12:43:19;;;;;;;6.00;2.03;;;;;;;;;;5084750;28;20057;-63
2022/03/12 12:45:52;;;;;;;6.90;2.07;;;;;;;;;;5080193;28;20059;-62
2022/03/12 12:48:27;;;;;;;7.90;2.08;;;;;;;;;;5071493;28;20053;-63
2022/03/12 12:50:59;;;;;;;7.47;2.20;;;;;;;;;;5076862;28;20057;-63
2022/03/12 12:53:36;;;;;;;7.93;2.15;;;;;;;;;;5086216;28;20060;-63
2022/03/12 12:56:21;;;;;;;9.23;2.22;;;;;;;;;;5091482;28;20139;-63
2022/03/12 12:58:54;;;;;;;10.30;2.72;;;;;;;;;;5071038;28;20045;-63
2022/03/12 13:01:26;;;;;;;8.90;2.22;;;;;;;;;;5071656;28;20541;-62
2022/03/12 13:03:53;;;;;;;8.13;2.17;;;;;;;;;;5085667;28;20172;-63
2022/03/12 13:06:40;;;;;;;6.88;2.17;;;;;;;;;;5076734;28;20057;-63
2022/03/12 13:09:11;;;;;;;6.28;2.17;;;;;;;;;;5072751;28;20073;-63
2022/03/12 13:11:47;;;;;;;6.45;2.35;;;;;;;;;;5090574;28;20060;-63
2022/03/12 13:14:18;;;;;;;8.25;2.67;;;;;;;;;;5092189;28;20059;-63
2022/03/12 13:16:50;;;;;;;5.53;2.17;;;;;;;;;;5087105;28;20064;-64
2022/03/12 13:19:33;;;;;;;7.43;2.28;;;;;;;;;;5070945;28;20514;-64
2022/03/12 13:21:59;;;;;;;7.68;2.47;;;;;;;;;;5078788;28;20060;-64
2022/03/12 13:24:30;;;;;;;9.13;2.45;;;;;;;;;;5090417;28;20056;-64
2022/03/12 13:27:00;;;;;;;6.95;2.65;;;;;;;;;;5086405;28;20056;-63
2022/03/12 13:29:26;;;;;;;9.07;2.25;;;;;;;;;;5070487;28;20539;-63
2022/03/12 13:31:54;;;;;;;9.23;2.53;;;;;;;;;;5070268;28;20850;-63
2022/03/12 13:34:22;;;;;;;10.77;2.60;;;;;;;;;;5072828;28;20084;-63
2022/03/12 13:36:52;;;;;;;7.47;2.47;;;;;;;;;;5074956;28;20088;-62
2022/03/12 13:39:19;;;;;;;8.00;2.22;;;;;;;;;;5084928;28;20141;-64
2022/03/12 13:41:46;;;;;;;8.20;2.10;;;;;;;;;;5088309;28;20132;-64
2022/03/12 13:44:14;;;;;;;6.18;2.25;;;;;;;;;;5079788;28;20056;-63
2022/03/12 13:46:41;;;;;;;6.63;2.10;;;;;;;;;;5090013;28;20165;-64
2022/03/12 13:49:12;;;;;;;5.03;1.85;;;;;;;;;;5087296;28;20048;-64
2022/03/12 13:51:43;;;;;;;9.40;1.80;;;;;;;;;;5088602;28;20057;-64
2022/03/12 13:54:10;;;;;;;12.40;2.40;;;;;;;;;;5089153;28;20060;-64
2022/03/12 13:56:40;;;;;;;9.10;2.13;;;;;;;;;;5090986;28;20045;-63
2022/03/12 13:59:10;;;;;;;6.53;2.03;;;;;;;;;;5090483;28;20048;-64
2022/03/12 14:01:38;;;;;;;9.55;2.35;;;;;;;;;;5071418;28;20135;-64
2022/03/12 14:04:05;;;;;;;;;;;;;;;;;;5070229;28;20518;-63
2022/03/12 14:06:40;;;;;;;6.88;2.22;;;;;;;;;;5087041;28;45108;-64
2022/03/12 14:09:07;;;;;;;7.85;2.35;;;;;;;;;;5075088;28;20088;-64
2022/03/12 14:11:37;;;;;;;6.07;2.05;;;;;;;;;;5071929;28;20064;-64
2022/03/12 14:14:06;;;;;;;7.50;1.80;;;;;;;;;;5079973;28;20055;-63
2022/03/12 14:16:37;;;;;;;6.35;1.70;;;;;;;;;;5071552;28;20163;-63
2022/03/12 14:19:05;;;;;;;6.25;1.98;;;;;;;;;;5087217;28;20045;-63
2022/03/12 14:21:43;;;;;;;7.10;2.30;;;;;;;;;;5068902;28;20137;-64
2022/03/12 14:24:15;;;;;;;6.90;1.98;;;;;;;;;;5081282;28;20148;-64
2022/03/12 14:26:42;;;;;;;8.90;2.30;;;;;;;;;;5079767;28;20052;-65
2022/03/12 14:29:09;;;;;;;4.63;1.90;;;;;;;;;;5081183;28;20144;-63
2022/03/12 14:31:37;;;;;;;5.97;1.98;;;;;;;;;;5084952;28;20051;-64
2022/03/12 14:34:05;;;;;;;8.32;1.77;;;;;;;;;;5089902;28;20048;-63
2022/03/12 14:36:34;;;;;;;8.02;1.77;;;;;;;;;;5089467;28;20794;-63
2022/03/12 14:39:01;;;;;;;6.93;2.00;;;;;;;;;;5089650;28;20052;-63